createdAt,value
2023-02-05T00:00:11.772Z,3.20
2023-02-05T00:02:39.755Z,3.20
2023-02-05T00:05:09.804Z,3.10
2023-02-05T00:07:38.084Z,3.30
2023-02-05T00:10:07.379Z,3.10
2023-02-05T00:12:35.356Z,3.00
2023-02-05T00:15:03.361Z,2.90
2023-02-05T00:17:31.345Z,2.90
2023-02-05T00:19:59.333Z,2.90
2023-02-05T00:22:28.653Z,3.20
2023-02-05T00:24:56.617Z,3.10
2023-02-05T00:27:24.625Z,3.20
2023-02-05T00:29:52.630Z,3.20
2023-02-05T00:32:20.617Z,3.30
2023-02-05T00:34:48.743Z,3.40
2023-02-05T00:37:16.781Z,3.40
2023-02-05T00:39:46.068Z,3.30
2023-02-05T00:42:14.041Z,3.60
2023-02-05T00:44:42.062Z,3.60
2023-02-05T00:47:10.023Z,3.60
2023-02-05T00:49:38.045Z,3.60
2023-02-05T00:52:06.381Z,3.60
2023-02-05T00:54:34.385Z,3.60
2023-02-05T00:57:03.784Z,3.60
2023-02-05T00:59:31.794Z,3.70
2023-02-05T01:01:59.748Z,3.90
2023-02-05T01:04:27.804Z,3.90
2023-02-05T01:06:55.802Z,4.00
2023-02-05T01:09:24.291Z,4.00
2023-02-05T01:11:52.264Z,4.10
2023-02-05T01:14:21.644Z,4.20
2023-02-05T01:16:49.633Z,4.20
2023-02-05T01:19:17.600Z,4.10
2023-02-05T01:21:45.750Z,4.10
2023-02-05T01:24:13.801Z,4.30
2023-02-05T01:26:41.743Z,4.30
2023-02-05T01:29:09.716Z,4.20
2023-02-05T01:31:39.083Z,4.20
2023-02-05T01:34:07.111Z,4.10
2023-02-05T01:36:35.149Z,4.10
2023-02-05T01:39:03.141Z,4.10
2023-02-05T01:41:35.082Z,4.30
2023-02-05T01:44:09.021Z,4.30
2023-02-05T01:46:40.278Z,4.30
2023-02-05T01:49:12.140Z,4.30
2023-02-05T01:51:41.695Z,4.30
2023-02-05T01:54:10.046Z,4.20
2023-02-05T01:56:41.999Z,4.30
2023-02-05T01:59:14.623Z,4.40
2023-02-05T02:01:45.209Z,4.40
2023-02-05T02:04:18.126Z,4.40
2023-02-05T02:06:46.219Z,4.40
2023-02-05T02:09:14.410Z,4.40
2023-02-05T02:11:44.922Z,4.30
2023-02-05T02:14:14.384Z,4.30
2023-02-05T02:16:43.708Z,4.30
2023-02-05T02:19:21.269Z,4.30
2023-02-05T02:22:39.726Z,4.30
2023-02-05T02:25:46.014Z,4.30
2023-02-05T02:28:20.631Z,4.30
2023-02-05T02:30:57.485Z,4.30
2023-02-05T02:33:32.619Z,4.30
2023-02-05T02:36:07.797Z,4.30
2023-02-05T02:38:42.712Z,4.30
2023-02-05T02:41:19.972Z,4.30
2023-02-05T02:43:53.661Z,4.40
2023-02-05T02:46:25.820Z,4.50
2023-02-05T02:48:59.224Z,4.50
2023-02-05T02:51:29.270Z,4.40
2023-02-05T02:54:01.254Z,4.40
2023-02-05T02:56:31.266Z,4.40
2023-02-05T02:59:06.214Z,4.30
2023-02-05T03:01:37.529Z,4.40
2023-02-05T03:04:17.410Z,4.50
2023-02-05T03:06:50.648Z,4.50
2023-02-05T03:09:27.153Z,4.50
2023-02-05T03:11:58.430Z,4.50
2023-02-05T03:14:29.134Z,4.50
2023-02-05T03:16:58.091Z,4.40
2023-02-05T03:19:27.217Z,4.50
2023-02-05T03:22:00.595Z,4.60
2023-02-05T03:24:29.918Z,4.60
2023-02-05T03:27:00.123Z,4.60
2023-02-05T03:29:35.687Z,4.60
2023-02-05T03:32:20.394Z,4.60
2023-02-05T03:35:06.598Z,4.60
2023-02-05T03:37:45.707Z,4.60
2023-02-05T03:40:22.051Z,4.60
2023-02-05T03:43:01.810Z,4.60
2023-02-05T03:45:45.426Z,4.50
2023-02-05T03:48:37.873Z,4.60
2023-02-05T03:51:23.648Z,4.60
2023-02-05T03:54:04.989Z,4.70
2023-02-05T03:56:40.744Z,4.70
2023-02-05T03:59:09.506Z,4.60
2023-02-05T04:01:39.010Z,4.60
2023-02-05T04:04:07.216Z,4.70
2023-02-05T04:06:35.245Z,4.70
2023-02-05T04:09:03.281Z,4.70
2023-02-05T04:11:32.861Z,4.80
2023-02-05T04:14:01.254Z,4.80
2023-02-05T04:16:29.312Z,4.80
2023-02-05T04:18:58.677Z,4.70
2023-02-05T04:21:26.724Z,4.70
2023-02-05T04:23:54.840Z,4.80
2023-02-05T04:26:22.821Z,4.70
2023-02-05T04:28:50.748Z,4.70
2023-02-05T04:31:18.731Z,4.70
2023-02-05T04:33:46.799Z,4.70
2023-02-05T04:36:16.127Z,4.80
2023-02-05T04:38:44.132Z,4.80
2023-02-05T04:41:15.191Z,4.70
2023-02-05T04:43:43.168Z,4.80
2023-02-05T04:46:13.141Z,4.60
2023-02-05T04:48:41.504Z,4.60
2023-02-05T04:51:11.384Z,4.70
2023-02-05T04:53:41.364Z,4.90
2023-02-05T04:56:12.511Z,4.90
2023-02-05T04:58:41.263Z,4.80
2023-02-05T05:01:14.321Z,4.70
2023-02-05T05:03:42.438Z,4.60
2023-02-05T05:06:11.733Z,4.60
2023-02-05T05:08:41.172Z,4.60
2023-02-05T05:11:14.741Z,4.60
2023-02-05T05:13:43.844Z,4.60
2023-02-05T05:16:13.301Z,4.70
2023-02-05T05:18:41.716Z,4.70
2023-02-05T05:21:10.173Z,4.70
2023-02-05T05:23:40.302Z,4.80
2023-02-05T05:26:10.452Z,4.70
2023-02-05T05:28:39.212Z,4.70
2023-02-05T05:31:09.628Z,4.60
2023-02-05T05:33:38.657Z,4.60
2023-02-05T05:36:10.259Z,4.60
2023-02-05T05:38:39.772Z,4.70
2023-02-05T05:41:25.478Z,4.80
2023-02-05T05:43:55.238Z,4.80
2023-02-05T05:46:26.954Z,4.90
2023-02-05T05:48:57.326Z,4.90
2023-02-05T05:51:26.822Z,4.70
2023-02-05T05:53:56.756Z,4.70
2023-02-05T05:56:25.119Z,4.80
2023-02-05T05:58:53.200Z,4.80
2023-02-05T06:01:22.927Z,4.80
2023-02-05T06:03:51.125Z,4.90
2023-02-05T06:06:19.135Z,4.90
2023-02-05T06:08:47.203Z,4.80
2023-02-05T06:11:16.604Z,4.80
2023-02-05T06:13:44.548Z,4.80
2023-02-05T06:16:12.618Z,4.90
2023-02-05T06:18:40.665Z,4.80
2023-02-05T06:21:09.718Z,4.80
2023-02-05T06:23:37.764Z,4.90
2023-02-05T06:26:06.094Z,5.10
2023-02-05T06:28:35.561Z,5.20
2023-02-05T06:31:03.618Z,5.50
2023-02-05T06:33:31.689Z,5.70
2023-02-05T06:35:59.643Z,5.80
2023-02-05T06:38:27.741Z,5.70
2023-02-05T06:40:55.764Z,5.40
2023-02-05T06:43:23.713Z,5.20
2023-02-05T06:45:53.199Z,5.30
2023-02-05T06:48:21.184Z,5.30
2023-02-05T06:50:49.156Z,5.20
2023-02-05T06:53:17.086Z,5.10
2023-02-05T06:55:45.052Z,5.00
2023-02-05T06:58:13.041Z,4.90
2023-02-05T07:00:41.042Z,5.10
2023-02-05T07:03:10.426Z,5.20
2023-02-05T07:05:38.386Z,5.30
2023-02-05T07:08:08.174Z,5.10
2023-02-05T07:10:36.206Z,5.00
2023-02-05T07:13:05.934Z,4.90
2023-02-05T07:15:36.772Z,4.80
2023-02-05T07:18:05.867Z,4.80
2023-02-05T07:20:36.685Z,4.90
2023-02-05T07:23:05.478Z,4.80
2023-02-05T07:25:36.490Z,4.70
2023-02-05T07:28:05.382Z,4.90
2023-02-05T07:30:33.543Z,5.10
2023-02-05T07:33:03.491Z,4.90
2023-02-05T07:35:32.702Z,4.90
2023-02-05T07:38:02.240Z,4.90
2023-02-05T07:40:30.226Z,4.90
2023-02-05T07:42:58.259Z,4.90
2023-02-05T07:45:26.272Z,5.20
2023-02-05T07:47:54.774Z,5.10
2023-02-05T07:50:22.792Z,5.20
2023-02-05T07:52:51.123Z,5.20
2023-02-05T07:55:21.606Z,5.20
2023-02-05T07:57:49.587Z,4.90
2023-02-05T08:00:18.122Z,5.00
2023-02-05T08:02:46.168Z,4.70
2023-02-05T08:05:14.158Z,4.70
2023-02-05T08:07:42.649Z,4.70
2023-02-05T08:10:14.449Z,5.00
2023-02-05T08:12:43.808Z,5.30
2023-02-05T08:15:12.077Z,5.30
2023-02-05T08:17:40.302Z,5.10
2023-02-05T08:20:09.898Z,5.00
2023-02-05T08:22:40.442Z,4.90
2023-02-05T08:25:12.037Z,5.10
2023-02-05T08:27:44.761Z,5.20
2023-02-05T08:30:16.799Z,5.50
2023-02-05T08:32:49.171Z,5.40
2023-02-05T08:35:17.520Z,5.40
2023-02-05T08:37:45.524Z,5.20
2023-02-05T08:40:15.046Z,5.30
2023-02-05T08:42:44.379Z,5.60
2023-02-05T08:45:12.504Z,5.50
2023-02-05T08:47:40.495Z,5.40
2023-02-05T08:50:10.519Z,5.20
2023-02-05T08:52:38.678Z,5.30
2023-02-05T08:55:07.226Z,5.10
2023-02-05T08:57:35.211Z,5.20
2023-02-05T09:00:05.386Z,5.30
2023-02-05T09:02:33.485Z,5.30
2023-02-05T09:05:09.075Z,5.10
2023-02-05T09:07:39.245Z,4.90
2023-02-05T09:10:09.885Z,4.90
2023-02-05T09:12:38.275Z,4.90
2023-02-05T09:15:09.417Z,4.80
2023-02-05T09:17:37.610Z,4.80
2023-02-05T09:20:06.312Z,4.80
2023-02-05T09:22:34.362Z,4.80
2023-02-05T09:25:02.372Z,4.80
2023-02-05T09:27:31.079Z,5.00
2023-02-05T09:29:59.365Z,5.30
2023-02-05T09:32:28.789Z,5.20
2023-02-05T09:34:56.851Z,5.40
2023-02-05T09:37:24.827Z,5.50
2023-02-05T09:40:19.422Z,5.70
2023-02-05T09:42:53.481Z,5.50
2023-02-05T09:45:39.950Z,5.50
2023-02-05T09:48:35.232Z,5.60
2023-02-05T09:51:03.521Z,5.70
2023-02-05T09:53:43.473Z,5.80
2023-02-05T09:56:13.659Z,6.00
2023-02-05T09:58:45.303Z,6.20
2023-02-05T10:01:21.310Z,6.30
2023-02-05T10:03:56.236Z,6.20
2023-02-05T10:06:41.715Z,5.80
2023-02-05T10:09:34.464Z,5.90
2023-02-05T10:12:15.302Z,5.90
2023-02-05T10:14:58.603Z,6.10
2023-02-05T10:17:47.194Z,6.00
2023-02-05T10:20:34.342Z,6.10
2023-02-05T10:23:16.679Z,6.20
2023-02-05T10:26:08.733Z,6.10
2023-02-05T10:29:23.698Z,6.10
2023-02-05T10:32:16.107Z,6.20
2023-02-05T10:35:01.384Z,6.40
2023-02-05T10:37:41.829Z,6.40
2023-02-05T10:40:16.395Z,6.10
2023-02-05T10:42:48.996Z,6.10
2023-02-05T10:45:22.489Z,6.20
2023-02-05T10:48:06.454Z,6.10
2023-02-05T10:50:54.747Z,6.20
2023-02-05T10:53:27.171Z,6.30
2023-02-05T10:55:56.103Z,6.30
2023-02-05T10:58:41.094Z,6.30
2023-02-05T11:01:16.593Z,6.30
2023-02-05T11:03:55.202Z,6.50
2023-02-05T11:06:26.627Z,6.30
2023-02-05T11:08:56.124Z,6.10
2023-02-05T11:11:28.902Z,6.10
2023-02-05T11:14:00.668Z,6.20
2023-02-05T11:16:39.025Z,6.30
2023-02-05T11:19:21.993Z,6.40
2023-02-05T11:21:55.499Z,6.20
2023-02-05T11:24:29.425Z,6.50
2023-02-05T11:27:29.121Z,6.50
2023-02-05T11:30:00.897Z,6.60
2023-02-05T11:32:38.054Z,6.20
2023-02-05T11:35:24.287Z,6.00
2023-02-05T11:38:01.796Z,5.90
2023-02-05T11:40:33.508Z,5.70
2023-02-05T11:43:08.139Z,5.80
2023-02-05T11:45:39.982Z,5.90
2023-02-05T11:48:23.156Z,5.80
2023-02-05T11:50:51.205Z,5.80
2023-02-05T11:53:21.024Z,5.70
2023-02-05T11:55:58.032Z,5.90
2023-02-05T11:58:36.578Z,6.00
2023-02-05T12:01:08.956Z,6.30
2023-02-05T12:03:37.074Z,6.20
2023-02-05T12:06:17.890Z,6.20
2023-02-05T12:08:50.140Z,6.20
2023-02-05T12:12:04.338Z,6.20
2023-02-05T12:14:45.827Z,6.50
2023-02-05T12:17:33.110Z,6.50
2023-02-05T12:20:15.721Z,6.50
2023-02-05T12:23:23.214Z,6.40
2023-02-05T12:26:10.908Z,6.60
2023-02-05T12:28:51.677Z,6.40
2023-02-05T12:31:27.918Z,6.40
2023-02-05T12:34:17.336Z,6.50
2023-02-05T12:37:05.321Z,6.50
2023-02-05T12:39:41.904Z,6.30
2023-02-05T12:42:25.894Z,6.30
2023-02-05T12:45:14.141Z,6.40
2023-02-05T12:47:58.724Z,6.50
2023-02-05T12:50:54.332Z,6.50
2023-02-05T12:53:44.056Z,6.70
2023-02-05T12:56:38.157Z,6.70
2023-02-05T12:59:14.178Z,6.60
2023-02-05T13:01:50.047Z,6.80
2023-02-05T13:04:24.960Z,6.80
2023-02-05T13:06:59.689Z,6.90
2023-02-05T13:09:37.459Z,6.60
2023-02-05T13:12:11.718Z,6.70
2023-02-05T13:14:45.486Z,6.80
2023-02-05T13:17:20.380Z,6.90
2023-02-05T13:19:53.182Z,7.00
2023-02-05T13:22:42.255Z,6.80
2023-02-05T13:25:38.932Z,6.80
2023-02-05T13:28:42.423Z,7.00
2023-02-05T13:31:26.087Z,6.80
2023-02-05T13:33:58.255Z,7.10
2023-02-05T13:37:02.527Z,7.20
2023-02-05T13:40:11.323Z,7.20
2023-02-05T13:43:08.704Z,7.40
2023-02-05T13:46:14.659Z,7.90
2023-02-05T13:49:26.892Z,7.70
2023-02-05T13:52:24.123Z,7.70
2023-02-05T13:55:21.501Z,7.70
2023-02-05T13:58:24.493Z,7.60
2023-02-05T14:01:03.913Z,7.40
2023-02-05T14:03:39.090Z,7.40
2023-02-05T14:06:22.503Z,7.40
2023-02-05T14:09:00.800Z,7.30
2023-02-05T14:11:30.137Z,7.50
2023-02-05T14:14:27.112Z,7.70
2023-02-05T14:16:56.698Z,7.40
2023-02-05T14:19:28.576Z,7.60
2023-02-05T14:22:03.536Z,7.70
2023-02-05T14:24:50.641Z,7.70
2023-02-05T14:27:52.329Z,8.00
2023-02-05T14:30:47.975Z,8.00
2023-02-05T14:33:38.507Z,8.00
2023-02-05T14:36:40.767Z,8.10
2023-02-05T14:39:23.082Z,8.10
2023-02-05T14:41:59.459Z,7.90
2023-02-05T14:44:31.362Z,8.10
2023-02-05T14:47:07.046Z,8.20
2023-02-05T14:49:42.960Z,8.00
2023-02-05T14:52:28.296Z,8.00
2023-02-05T14:55:01.311Z,8.10
2023-02-05T14:57:42.791Z,8.20
2023-02-05T15:00:30.480Z,8.10
2023-02-05T15:03:28.690Z,8.00
2023-02-05T15:06:03.401Z,7.80
2023-02-05T15:08:46.640Z,7.70
2023-02-05T15:11:25.031Z,7.80
2023-02-05T15:14:41.586Z,7.60
2023-02-05T15:17:47.602Z,7.60
2023-02-05T15:20:23.987Z,7.50
2023-02-05T15:22:58.952Z,7.40
2023-02-05T15:25:39.937Z,7.40
2023-02-05T15:28:26.091Z,7.30
2023-02-05T15:31:18.431Z,7.20
2023-02-05T15:34:03.288Z,7.20
2023-02-05T15:36:40.902Z,7.30
2023-02-05T15:39:20.697Z,7.20
2023-02-05T15:41:49.284Z,7.30
2023-02-05T15:44:29.333Z,7.30
2023-02-05T15:47:02.029Z,7.20
2023-02-05T15:49:37.286Z,7.10
2023-02-05T15:52:06.772Z,7.20
2023-02-05T15:54:37.385Z,7.10
2023-02-05T15:57:06.915Z,7.30
2023-02-05T15:59:35.803Z,7.40
2023-02-05T16:02:10.040Z,7.40
2023-02-05T16:04:39.994Z,7.30
2023-02-05T16:07:21.950Z,7.30
2023-02-05T16:09:53.893Z,7.20
2023-02-05T16:12:22.098Z,7.20
2023-02-05T16:15:00.476Z,7.40
2023-02-05T16:17:38.063Z,7.10
2023-02-05T16:20:22.282Z,7.00
2023-02-05T16:22:55.328Z,6.90
2023-02-05T16:25:38.555Z,7.00
2023-02-05T16:28:14.469Z,6.90
2023-02-05T16:30:44.819Z,6.80
2023-02-05T16:33:28.933Z,6.90
2023-02-05T16:36:01.732Z,6.90
2023-02-05T16:38:30.366Z,6.80
2023-02-05T16:41:01.531Z,6.80
2023-02-05T16:43:37.120Z,6.80
2023-02-05T16:46:36.380Z,6.90
2023-02-05T16:49:31.600Z,7.10
2023-02-05T16:52:00.230Z,7.20
2023-02-05T16:54:41.791Z,7.50
2023-02-05T16:57:15.488Z,7.40
2023-02-05T16:59:54.032Z,7.50
2023-02-05T17:02:29.705Z,7.20
2023-02-05T17:05:02.072Z,7.30
2023-02-05T17:07:31.292Z,7.00
2023-02-05T17:10:20.268Z,6.90
2023-02-05T17:12:54.173Z,6.90
2023-02-05T17:15:36.952Z,7.20
2023-02-05T17:18:31.217Z,7.20
2023-02-05T17:21:26.909Z,7.40
2023-02-05T17:23:57.146Z,7.60
2023-02-05T17:26:27.482Z,7.50
2023-02-05T17:28:59.350Z,7.40
2023-02-05T17:31:29.581Z,7.50
2023-02-05T17:34:00.288Z,7.10
2023-02-05T17:36:29.833Z,6.90
2023-02-05T17:38:58.495Z,7.10
2023-02-05T17:41:47.333Z,7.00
2023-02-05T17:44:19.383Z,7.00
2023-02-05T17:46:48.085Z,7.00
2023-02-05T17:49:16.542Z,7.00
2023-02-05T17:51:46.712Z,6.80
2023-02-05T17:54:18.262Z,6.70
2023-02-05T17:56:48.432Z,6.60
2023-02-05T17:59:19.760Z,6.50
2023-02-05T18:01:49.023Z,6.50
2023-02-05T18:04:18.723Z,6.50
2023-02-05T18:06:49.918Z,6.50
2023-02-05T18:09:20.873Z,6.60
2023-02-05T18:11:49.472Z,6.60
2023-02-05T18:14:18.042Z,6.70
2023-02-05T18:16:46.938Z,6.50
2023-02-05T18:19:15.810Z,6.40
2023-02-05T18:21:47.100Z,6.50
2023-02-05T18:24:16.964Z,6.60
2023-02-05T18:26:48.558Z,6.50
2023-02-05T18:29:18.184Z,6.60
2023-02-05T18:31:47.512Z,6.40
2023-02-05T18:34:17.252Z,6.20
2023-02-05T18:36:49.124Z,6.30
2023-02-05T18:39:20.423Z,6.30
2023-02-05T18:41:50.020Z,6.50
2023-02-05T18:44:19.114Z,6.50
2023-02-05T18:46:48.700Z,6.50
2023-02-05T18:49:18.283Z,6.50
2023-02-05T18:51:48.201Z,6.70
2023-02-05T18:54:19.012Z,6.60
2023-02-05T18:56:49.198Z,6.80
2023-02-05T18:59:21.407Z,6.70
2023-02-05T19:01:50.909Z,6.80
2023-02-05T19:04:27.192Z,6.90
2023-02-05T19:06:56.283Z,7.20
2023-02-05T19:09:28.105Z,7.10
2023-02-05T19:11:57.762Z,7.30
2023-02-05T19:14:28.231Z,7.10
2023-02-05T19:16:57.838Z,7.10
2023-02-05T19:19:27.999Z,7.10
2023-02-05T19:22:00.103Z,6.90
2023-02-05T19:24:31.021Z,7.00
2023-02-05T19:27:01.016Z,7.20
2023-02-05T19:29:30.703Z,7.00
2023-02-05T19:31:59.835Z,6.80
2023-02-05T19:34:30.245Z,7.00
2023-02-05T19:37:01.029Z,6.80
2023-02-05T19:39:32.063Z,6.80
2023-02-05T19:42:03.009Z,7.00
2023-02-05T19:44:32.667Z,6.90
2023-02-05T19:47:02.582Z,7.00
2023-02-05T19:49:32.374Z,7.00
2023-02-05T19:52:02.012Z,6.80
2023-02-05T19:54:32.585Z,6.90
2023-02-05T19:57:01.591Z,6.80
2023-02-05T19:59:31.159Z,6.50
2023-02-05T20:02:00.155Z,6.40
2023-02-05T20:04:30.642Z,6.50
2023-02-05T20:07:00.954Z,6.30
2023-02-05T20:09:32.659Z,6.40
2023-02-05T20:12:02.103Z,6.50
2023-02-05T20:14:31.422Z,6.70
2023-02-05T20:17:00.148Z,6.80
2023-02-05T20:19:29.966Z,7.00
2023-02-05T20:21:59.084Z,6.80
2023-02-05T20:24:28.193Z,6.70
2023-02-05T20:26:58.784Z,6.70
2023-02-05T20:29:44.938Z,6.50
2023-02-05T20:32:14.444Z,6.60
2023-02-05T20:34:47.913Z,6.70
2023-02-05T20:37:19.467Z,6.50
2023-02-05T20:39:48.742Z,6.60
2023-02-05T20:42:19.300Z,6.60
2023-02-05T20:44:48.206Z,6.80
2023-02-05T20:47:17.632Z,6.60
2023-02-05T20:49:46.840Z,6.50
2023-02-05T20:52:15.933Z,6.50
2023-02-05T20:54:45.191Z,6.50
2023-02-05T20:57:14.745Z,6.30
2023-02-05T20:59:46.108Z,6.30
2023-02-05T21:02:16.101Z,6.20
2023-02-05T21:04:45.109Z,6.10
2023-02-05T21:07:14.182Z,6.10
2023-02-05T21:09:43.341Z,6.00
2023-02-05T21:12:12.381Z,6.00
2023-02-05T21:14:41.237Z,6.20
2023-02-05T21:17:12.135Z,6.30
2023-02-05T21:19:41.917Z,6.20
2023-02-05T21:22:10.851Z,6.00
2023-02-05T21:24:39.103Z,6.30
2023-02-05T21:27:08.207Z,6.50
2023-02-05T21:29:37.745Z,6.50
2023-02-05T21:32:08.196Z,6.70
2023-02-05T21:34:41.890Z,6.70
2023-02-05T21:37:11.120Z,6.70
2023-02-05T21:39:41.374Z,6.80
2023-02-05T21:42:10.451Z,6.60
2023-02-05T21:44:39.649Z,6.50
2023-02-05T21:47:08.450Z,6.40
2023-02-05T21:49:38.811Z,6.30
2023-02-05T21:52:07.909Z,6.30
2023-02-05T21:54:37.398Z,6.30
2023-02-05T21:57:09.024Z,6.20
2023-02-05T21:59:38.154Z,6.20
2023-02-05T22:02:06.218Z,6.30
2023-02-05T22:04:34.943Z,6.20
2023-02-05T22:07:04.943Z,6.50
2023-02-05T22:09:34.076Z,6.60
2023-02-05T22:12:03.960Z,6.40
2023-02-05T22:14:33.148Z,6.50
2023-02-05T22:17:02.459Z,6.50
2023-02-05T22:19:32.357Z,6.60
2023-02-05T22:22:01.308Z,6.50
2023-02-05T22:24:32.176Z,6.80
2023-02-05T22:27:01.414Z,6.70
2023-02-05T22:29:31.094Z,6.70
2023-02-05T22:32:02.195Z,6.70
2023-02-05T22:34:32.216Z,6.80
2023-02-05T22:37:02.057Z,7.10
2023-02-05T22:39:33.310Z,7.20
2023-02-05T22:42:04.356Z,7.10
2023-02-05T22:44:33.947Z,6.90
2023-02-05T22:47:03.222Z,6.60
2023-02-05T22:49:32.272Z,6.80
2023-02-05T22:52:01.091Z,6.80
2023-02-05T22:54:31.685Z,6.60
2023-02-05T22:57:00.550Z,6.60
2023-02-05T22:59:30.087Z,6.60
2023-02-05T23:01:59.559Z,6.60
2023-02-05T23:04:28.912Z,6.70
2023-02-05T23:06:58.127Z,6.60
2023-02-05T23:09:27.270Z,6.50
2023-02-05T23:11:57.982Z,6.50
2023-02-05T23:14:27.342Z,6.50
2023-02-05T23:16:56.871Z,6.60
2023-02-05T23:19:26.225Z,6.80
2023-02-05T23:21:55.027Z,6.60
2023-02-05T23:24:24.551Z,6.70
2023-02-05T23:26:55.032Z,6.70
2023-02-05T23:29:27.421Z,6.50
2023-02-05T23:31:57.644Z,6.90
2023-02-05T23:34:26.808Z,6.80
2023-02-05T23:36:59.893Z,7.10
2023-02-05T23:39:28.807Z,6.90
2023-02-05T23:41:57.701Z,6.90
2023-02-05T23:44:28.425Z,6.80
2023-02-05T23:46:57.500Z,6.50
2023-02-05T23:49:27.550Z,6.40
2023-02-05T23:51:57.537Z,6.40
2023-02-05T23:54:27.250Z,6.30
2023-02-05T23:56:57.311Z,6.30
2023-02-05T23:59:28.022Z,6.20
